createdAt,value
2019-04-03T00:01:23.297Z,93.50
2019-04-03T00:02:48.810Z,93.50
2019-04-03T00:04:14.324Z,93.50
2019-04-03T00:05:39.812Z,93.50
2019-04-03T00:07:05.698Z,93.50
2019-04-03T00:08:31.572Z,93.70
2019-04-03T00:09:57.116Z,93.70
2019-04-03T00:11:22.745Z,93.70
2019-04-03T00:12:48.302Z,93.70
2019-04-03T00:14:13.758Z,93.60
2019-04-03T00:15:39.440Z,93.80
2019-04-03T00:17:04.893Z,93.90
2019-04-03T00:18:30.512Z,93.70
2019-04-03T00:19:56.259Z,93.70
2019-04-03T00:21:21.781Z,93.80
2019-04-03T00:22:47.323Z,93.80
2019-04-03T00:24:12.808Z,94.20
2019-04-03T00:25:38.272Z,93.90
2019-04-03T00:27:03.858Z,94.00
2019-04-03T00:28:29.319Z,94.00
2019-04-03T00:29:55.873Z,94.10
2019-04-03T00:31:22.973Z,94.30
2019-04-03T00:32:48.501Z,94.50
2019-04-03T00:34:13.978Z,95.00
2019-04-03T00:35:39.449Z,95.60
2019-04-03T00:37:04.999Z,95.90
2019-04-03T00:38:30.577Z,96.10
2019-04-03T00:39:56.081Z,96.20
2019-04-03T00:41:24.089Z,96.30
2019-04-03T00:42:48.752Z,96.50
2019-04-03T00:44:14.221Z,96.60
2019-04-03T00:45:39.822Z,96.60
2019-04-03T00:47:05.383Z,96.50
2019-04-03T00:48:30.889Z,96.50
2019-04-03T00:49:57.095Z,96.50
2019-04-03T00:51:22.683Z,96.50
2019-04-03T00:52:48.171Z,96.50
2019-04-03T00:54:13.639Z,96.50
2019-04-03T00:55:39.137Z,96.70
2019-04-03T00:57:04.804Z,96.70
2019-04-03T00:58:41.394Z,96.80
2019-04-03T01:00:12.049Z,96.80
2019-04-03T01:01:37.778Z,96.70
2019-04-03T01:03:03.243Z,96.80
2019-04-03T01:04:29.068Z,96.90
2019-04-03T01:05:54.686Z,96.80
2019-04-03T01:07:20.185Z,96.70
2019-04-03T01:08:45.619Z,96.40
2019-04-03T01:10:11.599Z,96.40
2019-04-03T01:11:37.088Z,96.30
2019-04-03T01:13:02.587Z,96.20
2019-04-03T01:14:28.137Z,96.20
2019-04-03T01:15:53.608Z,96.30
2019-04-03T01:17:19.063Z,96.20
2019-04-03T01:18:44.500Z,96.10
2019-04-03T01:20:10.202Z,95.90
2019-04-03T01:21:37.273Z,95.80
2019-04-03T01:23:02.882Z,95.70
2019-04-03T01:24:28.496Z,95.70
2019-04-03T01:25:53.943Z,95.80
2019-04-03T01:27:19.436Z,95.70
2019-04-03T01:28:44.964Z,95.60
2019-04-03T01:30:13.485Z,95.50
2019-04-03T01:31:38.050Z,95.40
2019-04-03T01:33:03.530Z,95.40
2019-04-03T01:34:28.983Z,95.30
2019-04-03T01:35:54.444Z,95.40
2019-04-03T01:37:19.939Z,95.60
2019-04-03T01:38:45.410Z,95.60
2019-04-03T01:40:10.966Z,95.60
2019-04-03T01:41:36.559Z,95.70
2019-04-03T01:43:02.027Z,95.80
2019-04-03T01:44:27.536Z,95.80
2019-04-03T01:45:52.987Z,95.90
2019-04-03T01:47:18.484Z,96.10
2019-04-03T01:48:43.960Z,95.90
2019-04-03T01:50:09.586Z,95.80
2019-04-03T01:51:35.099Z,95.80
2019-04-03T01:53:02.408Z,95.90
2019-04-03T01:54:27.677Z,96.00
2019-04-03T01:55:53.172Z,95.90
2019-04-03T01:57:18.665Z,95.70
2019-04-03T01:58:44.222Z,95.80
2019-04-03T02:00:10.278Z,95.80
2019-04-03T02:01:36.609Z,95.70
2019-04-03T02:03:02.852Z,95.70
2019-04-03T02:04:28.292Z,95.60
2019-04-03T02:05:53.726Z,95.60
2019-04-03T02:07:19.151Z,95.50
2019-04-03T02:08:45.301Z,95.50
2019-04-03T02:10:17.774Z,95.40
2019-04-03T02:11:44.315Z,95.40
2019-04-03T02:13:09.849Z,95.40
2019-04-03T02:14:35.419Z,95.50
2019-04-03T02:16:01.504Z,95.50
2019-04-03T02:17:26.907Z,95.60
2019-04-03T02:18:53.747Z,95.70
2019-04-03T02:20:19.913Z,95.80
2019-04-03T02:21:45.640Z,96.20
2019-04-03T02:23:11.106Z,96.00
2019-04-03T02:24:37.069Z,96.00
2019-04-03T02:26:03.036Z,96.00
2019-04-03T02:27:28.594Z,96.10
2019-04-03T02:28:54.187Z,96.10
2019-04-03T02:30:20.486Z,96.10
2019-04-03T02:31:46.510Z,96.10
2019-04-03T02:33:12.084Z,96.10
2019-04-03T02:34:37.616Z,96.10
2019-04-03T02:36:03.141Z,96.10
2019-04-03T02:37:28.720Z,96.10
2019-04-03T02:38:54.866Z,96.00
2019-04-03T02:40:20.545Z,95.90
2019-04-03T02:41:46.334Z,95.80
2019-04-03T02:43:14.492Z,95.70
2019-04-03T02:44:39.061Z,95.60
2019-04-03T02:46:04.765Z,95.60
2019-04-03T02:47:32.441Z,95.60
2019-04-03T02:48:57.436Z,95.50
2019-04-03T02:50:26.215Z,95.30
2019-04-03T02:51:53.691Z,95.20
2019-04-03T02:53:19.524Z,95.10
2019-04-03T02:54:47.033Z,95.10
2019-04-03T02:56:13.504Z,95.00
2019-04-03T02:57:39.482Z,94.90
2019-04-03T02:59:05.079Z,94.80
2019-04-03T03:00:33.081Z,94.70
2019-04-03T03:01:57.642Z,94.60
2019-04-03T03:03:23.121Z,94.60
2019-04-03T03:04:48.644Z,94.60
2019-04-03T03:06:14.335Z,94.60
2019-04-03T03:07:40.068Z,94.60
2019-04-03T03:09:06.914Z,94.70
2019-04-03T03:10:32.803Z,94.80
2019-04-03T03:11:59.102Z,94.80
2019-04-03T03:13:25.130Z,94.70
2019-04-03T03:14:51.294Z,94.60
2019-04-03T03:16:18.454Z,94.50
2019-04-03T03:17:45.263Z,94.60
2019-04-03T03:19:12.262Z,94.60
2019-04-03T03:20:39.800Z,94.60
2019-04-03T03:22:05.843Z,94.60
2019-04-03T03:23:31.608Z,94.60
2019-04-03T03:25:00.245Z,94.60
2019-04-03T03:26:25.470Z,94.60
2019-04-03T03:27:51.481Z,94.50
2019-04-03T03:29:19.830Z,94.60
2019-04-03T03:30:54.639Z,94.80
2019-04-03T03:32:18.807Z,94.70
2019-04-03T03:33:41.151Z,94.70
2019-04-03T03:35:13.419Z,94.70
2019-04-03T03:36:35.056Z,94.80
2019-04-03T03:38:01.950Z,94.70
2019-04-03T03:39:27.968Z,94.60
2019-04-03T03:40:53.872Z,94.60
2019-04-03T03:42:20.572Z,94.70
2019-04-03T03:43:46.597Z,94.80
2019-04-03T03:45:12.405Z,94.80
2019-04-03T03:46:38.063Z,94.70
2019-04-03T03:48:08.730Z,94.70
2019-04-03T03:49:31.141Z,94.80
2019-04-03T03:50:58.500Z,94.80
2019-04-03T03:52:26.443Z,94.90
2019-04-03T03:53:52.642Z,95.00
2019-04-03T03:55:22.872Z,95.00
2019-04-03T03:56:47.057Z,95.10
2019-04-03T03:58:13.657Z,95.10
2019-04-03T03:59:40.876Z,95.10
2019-04-03T04:01:06.659Z,95.00
2019-04-03T04:02:36.091Z,94.90
2019-04-03T04:04:00.028Z,95.10
2019-04-03T04:05:25.645Z,95.00
2019-04-03T04:06:51.129Z,95.00
2019-04-03T04:08:16.907Z,95.10
2019-04-03T04:09:43.533Z,95.10
2019-04-03T04:11:09.270Z,95.20
2019-04-03T04:12:39.584Z,95.10
2019-04-03T04:14:02.601Z,95.20
2019-04-03T04:15:29.940Z,95.10
2019-04-03T04:16:55.973Z,95.10
2019-04-03T04:18:24.132Z,95.20
2019-04-03T04:19:49.844Z,95.30
2019-04-03T04:21:15.697Z,95.50
2019-04-03T04:22:41.758Z,95.30
2019-04-03T04:24:07.483Z,95.30
2019-04-03T04:25:33.354Z,95.30
2019-04-03T04:27:02.322Z,95.30
2019-04-03T04:28:26.682Z,95.30
2019-04-03T04:29:52.255Z,95.30
2019-04-03T04:31:17.741Z,95.30
2019-04-03T04:32:45.694Z,95.30
2019-04-03T04:34:10.487Z,95.30
2019-04-03T04:35:36.473Z,95.40
2019-04-03T04:37:03.022Z,95.50
2019-04-03T04:38:28.632Z,95.50
2019-04-03T04:39:54.093Z,95.50
2019-04-03T04:41:19.576Z,95.50
2019-04-03T04:42:45.195Z,95.60
2019-04-03T04:44:10.707Z,95.60
2019-04-03T04:45:36.124Z,95.60
2019-04-03T04:47:01.661Z,95.50
2019-04-03T04:48:27.141Z,95.50
2019-04-03T04:49:53.668Z,95.50
2019-04-03T04:51:19.796Z,95.50
2019-04-03T04:52:45.292Z,95.50
2019-04-03T04:54:10.759Z,95.50
2019-04-03T04:55:36.380Z,95.50
2019-04-03T04:57:02.147Z,95.50
2019-04-03T04:58:27.600Z,95.50
2019-04-03T04:59:53.167Z,95.50
2019-04-03T05:01:18.812Z,95.70
2019-04-03T05:02:44.701Z,95.60
2019-04-03T05:04:10.271Z,95.60
2019-04-03T05:05:36.016Z,95.80
2019-04-03T05:07:01.709Z,95.40
2019-04-03T05:08:27.293Z,95.50
2019-04-03T05:09:52.775Z,95.50
2019-04-03T05:11:18.381Z,95.60
2019-04-03T05:12:45.349Z,95.70
2019-04-03T05:14:11.298Z,95.70
2019-04-03T05:15:36.865Z,95.70
2019-04-03T05:17:02.441Z,95.60
2019-04-03T05:18:29.272Z,95.60
2019-04-03T05:19:55.451Z,95.60
2019-04-03T05:21:21.753Z,95.70
2019-04-03T05:22:48.104Z,95.60
2019-04-03T05:24:13.846Z,95.60
2019-04-03T05:25:40.200Z,95.60
2019-04-03T05:27:07.483Z,95.60
2019-04-03T05:28:34.229Z,95.50
2019-04-03T05:30:00.403Z,95.50
2019-04-03T05:31:26.020Z,95.40
2019-04-03T05:32:51.560Z,95.40
2019-04-03T05:34:17.061Z,95.30
2019-04-03T05:35:43.934Z,95.30
2019-04-03T05:37:11.645Z,95.30
2019-04-03T05:38:38.022Z,95.20
2019-04-03T05:40:04.098Z,95.10
2019-04-03T05:41:29.629Z,94.90
2019-04-03T05:42:55.246Z,94.90
2019-04-03T05:44:23.217Z,94.80
2019-04-03T05:45:47.966Z,94.80
2019-04-03T05:47:13.771Z,94.80
2019-04-03T05:48:39.621Z,94.70
2019-04-03T05:50:05.563Z,94.70
2019-04-03T05:51:31.160Z,94.60
2019-04-03T05:52:57.086Z,94.50
2019-04-03T05:54:22.578Z,94.40
2019-04-03T05:55:48.326Z,94.30
2019-04-03T05:57:14.223Z,94.30
2019-04-03T05:58:40.014Z,94.30
2019-04-03T06:00:07.414Z,94.20
2019-04-03T06:01:33.068Z,94.20
2019-04-03T06:02:58.575Z,94.30
2019-04-03T06:04:24.026Z,94.30
2019-04-03T06:05:49.732Z,94.30
2019-04-03T06:07:17.429Z,94.30
2019-04-03T06:08:42.328Z,94.30
2019-04-03T06:10:08.569Z,94.40
2019-04-03T06:11:34.345Z,94.50
2019-04-03T06:12:59.995Z,94.50
2019-04-03T06:14:25.490Z,94.60
2019-04-03T06:15:52.754Z,94.60
2019-04-03T06:17:18.140Z,94.80
2019-04-03T06:18:43.767Z,94.90
2019-04-03T06:20:11.230Z,95.10
2019-04-03T06:21:36.742Z,94.90
2019-04-03T06:23:02.272Z,94.90
2019-04-03T06:24:27.976Z,95.00
2019-04-03T06:25:53.809Z,94.90
2019-04-03T06:27:19.985Z,94.90
2019-04-03T06:28:47.658Z,95.10
2019-04-03T06:30:12.992Z,95.20
2019-04-03T06:31:38.580Z,95.20
2019-04-03T06:33:04.085Z,95.40
2019-04-03T06:34:29.627Z,95.50
2019-04-03T06:35:55.149Z,95.60
2019-04-03T06:37:22.378Z,95.60
2019-04-03T06:38:47.871Z,95.80
2019-04-03T06:40:19.821Z,96.20
2019-04-03T06:41:45.284Z,96.20
2019-04-03T06:43:10.804Z,96.10
2019-04-03T06:44:36.357Z,96.20
2019-04-03T06:46:02.127Z,96.30
2019-04-03T06:47:27.885Z,96.30
2019-04-03T06:48:55.190Z,96.30
2019-04-03T06:50:21.381Z,96.60
2019-04-03T06:51:48.887Z,96.60
2019-04-03T06:53:14.171Z,96.70
2019-04-03T06:54:39.641Z,96.80
2019-04-03T06:56:07.888Z,96.80
2019-04-03T06:57:32.403Z,96.90
2019-04-03T06:59:00.560Z,96.80
2019-04-03T07:00:28.181Z,97.00
2019-04-03T07:01:54.018Z,97.20
2019-04-03T07:03:22.799Z,97.00
2019-04-03T07:04:53.382Z,97.30
2019-04-03T07:06:21.372Z,97.40
2019-04-03T07:07:47.740Z,97.20
2019-04-03T07:09:23.082Z,97.00
2019-04-03T07:10:41.311Z,96.90
2019-04-03T07:12:08.121Z,96.90
2019-04-03T07:13:33.696Z,96.80
2019-04-03T07:14:59.184Z,96.80
2019-04-03T07:16:25.171Z,96.80
2019-04-03T07:17:50.702Z,96.80
2019-04-03T07:19:16.204Z,96.80
2019-04-03T07:20:41.875Z,96.80
2019-04-03T07:22:07.542Z,96.80
2019-04-03T07:23:33.047Z,96.70
2019-04-03T07:24:58.645Z,96.40
2019-04-03T07:26:24.220Z,96.50
2019-04-03T07:27:49.682Z,96.40
2019-04-03T07:29:16.933Z,96.40
2019-04-03T07:30:43.848Z,96.50
2019-04-03T07:32:09.535Z,96.60
2019-04-03T07:33:35.704Z,97.00
2019-04-03T07:35:05.207Z,97.20
2019-04-03T07:36:30.332Z,97.30
2019-04-03T07:37:56.911Z,97.40
2019-04-03T07:39:22.642Z,97.50
2019-04-03T07:40:50.815Z,97.50
2019-04-03T07:42:15.334Z,97.60
2019-04-03T07:43:40.860Z,97.60
2019-04-03T07:45:06.911Z,97.60
2019-04-03T07:46:33.217Z,97.80
2019-04-03T07:48:01.694Z,98.00
2019-04-03T07:49:27.903Z,97.80
2019-04-03T07:50:54.007Z,97.50
2019-04-03T07:52:19.682Z,97.40
2019-04-03T07:53:45.215Z,97.10
2019-04-03T07:55:11.228Z,96.70
2019-04-03T07:56:36.899Z,96.70
2019-04-03T07:58:02.361Z,96.60
2019-04-03T07:59:28.247Z,96.50
2019-04-03T08:00:53.852Z,96.30
2019-04-03T08:02:19.509Z,96.00
2019-04-03T08:03:45.203Z,95.80
2019-04-03T08:05:11.002Z,95.90
2019-04-03T08:06:36.607Z,95.90
2019-04-03T08:08:02.528Z,95.70
2019-04-03T08:09:28.465Z,95.50
2019-04-03T08:10:54.133Z,95.50
2019-04-03T08:12:19.693Z,95.50
2019-04-03T08:13:45.431Z,95.50
2019-04-03T08:15:13.244Z,95.60
2019-04-03T08:16:38.330Z,95.60
2019-04-03T08:18:03.947Z,96.00
2019-04-03T08:19:29.463Z,96.30
2019-04-03T08:20:56.775Z,96.70
2019-04-03T08:22:22.374Z,96.10
2019-04-03T08:23:48.369Z,96.30
2019-04-03T08:25:14.556Z,95.80
2019-04-03T08:26:40.324Z,95.80
2019-04-03T08:28:06.370Z,95.80
2019-04-03T08:29:33.225Z,96.00
2019-04-03T08:30:59.406Z,96.00
2019-04-03T08:32:25.352Z,96.00
2019-04-03T08:33:51.134Z,96.10
2019-04-03T08:35:22.398Z,96.10
2019-04-03T08:36:44.316Z,95.70
2019-04-03T08:38:12.398Z,95.50
2019-04-03T08:39:37.137Z,95.30
2019-04-03T08:41:03.988Z,95.70
2019-04-03T08:42:32.430Z,95.80
2019-04-03T08:43:57.444Z,95.80
2019-04-03T08:45:23.113Z,95.90
2019-04-03T08:46:48.666Z,95.70
2019-04-03T08:48:16.391Z,95.40
2019-04-03T08:49:41.465Z,95.50
2019-04-03T08:51:07.155Z,95.50
2019-04-03T08:52:32.707Z,95.70
2019-04-03T08:53:58.296Z,96.20
2019-04-03T08:55:24.290Z,96.50
2019-04-03T08:56:49.977Z,96.70
2019-04-03T08:58:15.570Z,96.70
2019-04-03T08:59:41.120Z,96.60
2019-04-03T09:01:09.644Z,96.60
2019-04-03T09:02:33.919Z,96.50
2019-04-03T09:03:59.402Z,96.50
2019-04-03T09:05:25.006Z,96.80
2019-04-03T09:06:51.736Z,96.90
2019-04-03T09:08:17.716Z,96.90
2019-04-03T09:09:43.182Z,97.00
2019-04-03T09:11:08.655Z,97.00
2019-04-03T09:12:34.289Z,97.00
2019-04-03T09:14:01.296Z,97.00
2019-04-03T09:15:28.255Z,97.20
2019-04-03T09:16:54.028Z,97.30
2019-04-03T09:18:19.588Z,97.30
2019-04-03T09:19:45.031Z,97.20
2019-04-03T09:21:10.528Z,97.40
2019-04-03T09:22:36.559Z,97.40
2019-04-03T09:24:02.380Z,97.10
2019-04-03T09:25:27.828Z,97.00
2019-04-03T09:26:53.274Z,97.40
2019-04-03T09:28:18.845Z,97.30
2019-04-03T09:29:45.139Z,97.60
2019-04-03T09:31:11.675Z,97.70
2019-04-03T09:32:37.535Z,97.80
2019-04-03T09:34:03.264Z,97.90
2019-04-03T09:35:28.808Z,97.80
2019-04-03T09:36:54.410Z,97.70
2019-04-03T09:38:20.120Z,97.50
2019-04-03T09:39:45.989Z,97.50
2019-04-03T09:41:12.035Z,97.00
2019-04-03T09:42:37.875Z,97.00
2019-04-03T09:44:03.471Z,96.90
2019-04-03T09:45:29.118Z,96.60
2019-04-03T09:46:54.564Z,96.40
2019-04-03T09:48:20.054Z,96.30
2019-04-03T09:49:45.562Z,96.10
2019-04-03T09:51:11.134Z,95.80
2019-04-03T09:52:42.418Z,95.80
2019-04-03T09:54:03.849Z,95.90
2019-04-03T09:55:33.467Z,95.90
2019-04-03T09:57:03.831Z,96.10
2019-04-03T09:58:23.748Z,96.00
2019-04-03T09:59:49.255Z,96.00
2019-04-03T10:01:17.987Z,95.80
2019-04-03T10:02:41.988Z,95.60
2019-04-03T10:04:07.854Z,96.00
2019-04-03T10:05:33.789Z,96.20
2019-04-03T10:07:01.451Z,96.20
2019-04-03T10:08:26.486Z,96.30
2019-04-03T10:09:53.985Z,96.40
2019-04-03T10:11:20.389Z,96.70
2019-04-03T10:12:48.000Z,96.40
2019-04-03T10:14:13.403Z,95.90
2019-04-03T10:15:39.345Z,95.70
2019-04-03T10:17:06.160Z,95.50
2019-04-03T10:18:32.072Z,95.30
2019-04-03T10:19:57.635Z,95.30
2019-04-03T10:21:23.216Z,95.30
2019-04-03T10:22:48.675Z,95.20
2019-04-03T10:24:14.288Z,94.90
2019-04-03T10:25:40.382Z,94.40
2019-04-03T10:27:06.102Z,94.70
2019-04-03T10:28:31.971Z,94.90
2019-04-03T10:29:57.544Z,94.90
2019-04-03T10:31:24.241Z,95.00
2019-04-03T10:32:50.484Z,95.10
2019-04-03T10:34:16.057Z,95.00
2019-04-03T10:35:41.601Z,95.20
2019-04-03T10:37:07.058Z,95.30
2019-04-03T10:38:44.194Z,95.40
2019-04-03T10:40:10.346Z,95.60
2019-04-03T10:41:36.186Z,95.70
2019-04-03T10:43:04.677Z,95.90
2019-04-03T10:44:28.960Z,96.00
2019-04-03T10:45:54.459Z,96.10
2019-04-03T10:47:24.682Z,96.40
2019-04-03T10:48:47.004Z,96.10
2019-04-03T10:50:14.387Z,96.10
2019-04-03T10:51:41.603Z,96.30
2019-04-03T10:53:06.963Z,96.50
2019-04-03T10:54:32.563Z,96.50
2019-04-03T10:55:59.673Z,96.50
2019-04-03T10:57:25.244Z,96.10
2019-04-03T10:58:51.101Z,96.10
2019-04-03T11:00:17.222Z,96.00
2019-04-03T11:01:42.732Z,96.10
2019-04-03T11:03:08.515Z,96.00
2019-04-03T11:04:34.179Z,96.00
2019-04-03T11:05:59.661Z,96.10
2019-04-03T11:07:25.157Z,96.30
2019-04-03T11:08:50.988Z,96.40
2019-04-03T11:10:17.967Z,96.20
2019-04-03T11:11:44.129Z,96.20
2019-04-03T11:13:10.015Z,96.20
2019-04-03T11:14:36.950Z,96.10
2019-04-03T11:16:03.476Z,95.70
2019-04-03T11:17:29.307Z,95.80
2019-04-03T11:19:00.122Z,95.80
2019-04-03T11:20:23.016Z,95.80
2019-04-03T11:21:48.644Z,95.70
2019-04-03T11:23:14.251Z,95.50
2019-04-03T11:24:41.997Z,95.40
2019-04-03T11:26:07.170Z,95.40
2019-04-03T11:27:42.498Z,95.40
2019-04-03T11:28:59.971Z,95.60
2019-04-03T11:30:25.792Z,95.80
2019-04-03T11:31:51.344Z,96.10
2019-04-03T11:33:17.131Z,96.10
2019-04-03T11:34:43.511Z,96.40
2019-04-03T11:36:09.678Z,96.50
2019-04-03T11:37:36.602Z,96.20
2019-04-03T11:39:12.293Z,96.20
2019-04-03T11:40:32.099Z,96.20
2019-04-03T11:41:59.009Z,96.20
2019-04-03T11:43:24.710Z,96.20
2019-04-03T11:44:50.341Z,96.10
2019-04-03T11:46:15.979Z,96.20
2019-04-03T11:47:44.850Z,96.20
2019-04-03T11:49:08.944Z,96.20
2019-04-03T11:50:34.660Z,96.20
2019-04-03T11:52:01.502Z,96.30
2019-04-03T11:53:27.531Z,96.20
2019-04-03T11:54:53.453Z,96.30
2019-04-03T11:56:19.052Z,96.60
2019-04-03T11:57:47.366Z,96.80
2019-04-03T11:59:11.788Z,97.10
2019-04-03T12:00:42.114Z,97.30
2019-04-03T12:02:08.472Z,97.20
2019-04-03T12:03:34.279Z,97.40
2019-04-03T12:04:59.845Z,97.60
2019-04-03T12:06:25.382Z,97.50
2019-04-03T12:07:51.224Z,97.20
2019-04-03T12:09:17.300Z,97.00
2019-04-03T12:10:42.923Z,96.90
2019-04-03T12:12:10.195Z,96.80
2019-04-03T12:13:36.106Z,96.80
2019-04-03T12:15:02.279Z,97.00
2019-04-03T12:16:28.013Z,96.90
2019-04-03T12:17:53.725Z,96.70
2019-04-03T12:19:20.891Z,96.20
2019-04-03T12:20:49.374Z,96.30
2019-04-03T12:22:14.360Z,96.40
2019-04-03T12:23:41.880Z,96.40
2019-04-03T12:25:08.354Z,96.60
2019-04-03T12:26:34.249Z,96.20
2019-04-03T12:28:00.468Z,95.90
2019-04-03T12:29:26.388Z,96.10
2019-04-03T12:30:52.057Z,96.80
2019-04-03T12:32:17.804Z,96.70
2019-04-03T12:33:53.923Z,96.60
2019-04-03T12:35:11.620Z,96.40
2019-04-03T12:36:39.297Z,96.20
2019-04-03T12:38:15.190Z,96.30
2019-04-03T12:39:54.096Z,96.50
2019-04-03T12:41:58.298Z,96.70
2019-04-03T12:43:26.116Z,96.30
2019-04-03T12:44:52.121Z,96.20
2019-04-03T12:46:24.664Z,96.90
2019-04-03T12:47:48.894Z,97.00
2019-04-03T12:49:14.960Z,97.10
2019-04-03T12:50:40.625Z,97.20
2019-04-03T12:52:06.585Z,97.50
2019-04-03T12:53:32.361Z,97.90
2019-04-03T12:54:57.831Z,98.50
2019-04-03T12:56:24.874Z,99.00
2019-04-03T12:57:51.050Z,99.40
2019-04-03T12:59:20.085Z,99.70
2019-04-03T13:00:53.270Z,99.90
2019-04-03T13:02:21.043Z,99.90
2019-04-03T13:03:47.284Z,99.90
2019-04-03T13:05:15.861Z,99.90
2019-04-03T13:06:42.403Z,99.90
2019-04-03T13:08:14.094Z,99.90
2019-04-03T13:09:39.912Z,99.90
2019-04-03T13:11:05.982Z,99.90
2019-04-03T13:12:31.680Z,99.90
2019-04-03T13:13:59.454Z,99.90
2019-04-03T13:15:24.844Z,99.90
2019-04-03T13:16:50.579Z,99.90
2019-04-03T13:18:18.751Z,99.90
2019-04-03T13:20:05.634Z,99.90
2019-04-03T13:21:30.592Z,99.70
2019-04-03T13:22:56.585Z,99.80
2019-04-03T13:24:22.341Z,99.90
2019-04-03T13:25:48.082Z,99.90
2019-04-03T13:27:13.525Z,99.90
2019-04-03T13:28:40.431Z,99.90
2019-04-03T13:30:11.483Z,99.90
2019-04-03T13:31:35.395Z,99.90
2019-04-03T13:33:05.663Z,99.90
2019-04-03T13:34:31.113Z,99.90
2019-04-03T13:35:56.140Z,99.90
2019-04-03T13:37:23.643Z,99.90
2019-04-03T13:39:00.359Z,99.60
2019-04-03T13:40:24.603Z,99.60
2019-04-03T13:41:50.128Z,99.00
2019-04-03T13:43:16.117Z,98.20
2019-04-03T13:44:41.981Z,98.20
2019-04-03T13:46:08.109Z,98.30
2019-04-03T13:47:33.826Z,98.50
2019-04-03T13:48:59.561Z,98.40
2019-04-03T13:50:25.763Z,98.20
2019-04-03T13:51:51.723Z,99.10
2019-04-03T13:53:18.350Z,98.80
2019-04-03T13:54:46.794Z,98.90
2019-04-03T13:56:12.352Z,99.50
2019-04-03T13:57:38.692Z,99.60
2019-04-03T13:59:10.784Z,99.90
2019-04-03T14:00:36.570Z,99.90
2019-04-03T14:02:02.699Z,99.90
2019-04-03T14:03:28.835Z,99.90
2019-04-03T14:04:56.411Z,99.90
2019-04-03T14:06:21.908Z,99.90
2019-04-03T14:07:47.494Z,99.90
2019-04-03T14:09:16.502Z,99.90
2019-04-03T14:10:40.740Z,99.90
2019-04-03T14:12:07.056Z,99.90
2019-04-03T14:13:32.701Z,99.90
2019-04-03T14:14:58.196Z,99.90
2019-04-03T14:16:24.398Z,99.90
2019-04-03T14:17:57.016Z,99.90
2019-04-03T14:19:17.172Z,99.90
2019-04-03T14:20:42.693Z,99.90
2019-04-03T14:22:08.206Z,99.90
2019-04-03T14:23:35.142Z,99.90
2019-04-03T14:25:01.004Z,99.90
2019-04-03T14:26:26.478Z,99.90
2019-04-03T14:27:52.212Z,99.90
2019-04-03T14:29:18.018Z,99.90
2019-04-03T14:30:44.665Z,99.90
2019-04-03T14:32:13.556Z,99.90
2019-04-03T14:33:44.586Z,99.90
2019-04-03T14:35:25.020Z,99.90
2019-04-03T14:36:33.220Z,99.90
2019-04-03T14:37:59.908Z,99.90
2019-04-03T14:39:26.101Z,99.90
2019-04-03T14:40:52.020Z,99.80
2019-04-03T14:42:17.563Z,99.90
2019-04-03T14:43:43.206Z,99.90
2019-04-03T14:45:13.400Z,99.90
2019-04-03T14:46:37.474Z,99.90
2019-04-03T14:48:02.927Z,99.90
2019-04-03T14:49:30.853Z,99.90
2019-04-03T14:50:55.855Z,99.80
2019-04-03T14:52:21.781Z,99.80
2019-04-03T14:53:47.761Z,99.30
2019-04-03T14:55:18.962Z,98.80
2019-04-03T14:56:41.219Z,98.00
2019-04-03T14:58:07.055Z,97.90
2019-04-03T14:59:34.876Z,97.40
2019-04-03T15:00:59.848Z,97.00
2019-04-03T15:02:25.806Z,96.80
2019-04-03T15:03:51.553Z,96.40
2019-04-03T15:05:17.535Z,95.50
2019-04-03T15:06:45.625Z,95.10
2019-04-03T15:08:10.704Z,94.80
2019-04-03T15:09:36.723Z,93.90
2019-04-03T15:11:03.776Z,93.50
2019-04-03T15:12:29.505Z,93.80
2019-04-03T15:13:55.079Z,93.10
2019-04-03T15:15:20.714Z,92.50
2019-04-03T15:16:46.563Z,92.50
2019-04-03T15:18:12.050Z,92.00
2019-04-03T15:19:37.559Z,91.80
2019-04-03T15:21:03.253Z,91.40
2019-04-03T15:22:29.457Z,91.30
2019-04-03T15:23:55.446Z,90.70
2019-04-03T15:25:21.263Z,90.10
2019-04-03T15:26:46.863Z,90.30
2019-04-03T15:28:12.909Z,90.00
2019-04-03T15:29:38.868Z,90.90
2019-04-03T15:31:04.664Z,92.10
2019-04-03T15:32:30.123Z,92.20
2019-04-03T15:33:56.261Z,92.20
2019-04-03T15:35:22.335Z,91.30
2019-04-03T15:36:50.360Z,91.00
2019-04-03T15:38:15.466Z,90.90
2019-04-03T15:39:42.095Z,90.60
2019-04-03T15:41:08.007Z,90.70
2019-04-03T15:42:33.553Z,90.50
2019-04-03T15:43:59.242Z,90.90
2019-04-03T15:45:25.477Z,91.90
2019-04-03T15:46:51.757Z,92.70
2019-04-03T15:48:20.893Z,93.10
2019-04-03T15:49:44.680Z,93.70
2019-04-03T15:51:10.234Z,94.30
2019-04-03T15:52:35.995Z,94.30
2019-04-03T15:54:01.608Z,94.10
2019-04-03T15:55:27.270Z,94.10
2019-04-03T15:56:53.002Z,94.10
2019-04-03T15:58:18.969Z,93.50
2019-04-03T15:59:44.567Z,93.00
2019-04-03T16:01:10.132Z,92.70
2019-04-03T16:02:35.928Z,92.90
2019-04-03T16:04:01.696Z,93.10
2019-04-03T16:05:29.604Z,93.20
2019-04-03T16:06:54.656Z,92.80
2019-04-03T16:08:20.619Z,92.80
2019-04-03T16:09:49.629Z,92.90
2019-04-03T16:11:13.756Z,92.70
2019-04-03T16:12:42.818Z,92.50
2019-04-03T16:14:07.103Z,92.00
2019-04-03T16:15:32.688Z,91.70
2019-04-03T16:17:00.634Z,91.00
2019-04-03T16:18:25.329Z,91.00
2019-04-03T16:19:52.325Z,90.10
2019-04-03T16:21:18.160Z,89.50
2019-04-03T16:22:44.139Z,89.80
2019-04-03T16:24:12.647Z,89.30
2019-04-03T16:25:38.045Z,89.70
2019-04-03T16:27:03.907Z,88.50
2019-04-03T16:28:33.137Z,88.60
2019-04-03T16:30:00.678Z,87.30
2019-04-03T16:31:26.295Z,87.50
2019-04-03T16:32:51.982Z,87.50
2019-04-03T16:34:18.537Z,86.80
2019-04-03T16:35:45.887Z,86.80
2019-04-03T16:37:11.665Z,87.60
2019-04-03T16:38:37.280Z,87.70
2019-04-03T16:40:05.412Z,86.60
2019-04-03T16:41:30.340Z,87.00
2019-04-03T16:42:56.538Z,86.50
2019-04-03T16:44:34.218Z,86.80
2019-04-03T16:45:59.981Z,86.60
2019-04-03T16:47:27.639Z,85.70
2019-04-03T16:48:53.173Z,85.00
2019-04-03T16:50:18.954Z,84.80
2019-04-03T16:51:44.739Z,85.10
2019-04-03T16:53:10.561Z,84.70
2019-04-03T16:54:36.332Z,84.10
2019-04-03T16:56:05.415Z,83.90
2019-04-03T16:57:30.036Z,83.70
2019-04-03T16:58:55.784Z,82.60
2019-04-03T17:00:23.102Z,82.90
2019-04-03T17:01:48.718Z,83.70
2019-04-03T17:03:14.406Z,84.60
2019-04-03T17:04:40.007Z,84.80
2019-04-03T17:06:05.648Z,85.30
2019-04-03T17:07:31.372Z,85.10
2019-04-03T17:08:58.702Z,85.50
2019-04-03T17:10:24.389Z,85.90
2019-04-03T17:11:50.160Z,86.30
2019-04-03T17:13:16.464Z,86.70
2019-04-03T17:14:42.143Z,87.00
2019-04-03T17:16:08.556Z,87.30
2019-04-03T17:17:34.308Z,87.20
2019-04-03T17:18:59.883Z,87.30
2019-04-03T17:20:25.534Z,87.70
2019-04-03T17:21:56.056Z,87.80
2019-04-03T17:23:21.619Z,87.70
2019-04-03T17:24:49.517Z,87.80
2019-04-03T17:26:14.715Z,88.00
2019-04-03T17:27:59.793Z,88.10
2019-04-03T17:29:26.785Z,87.80
2019-04-03T17:30:52.440Z,87.10
2019-04-03T17:32:18.420Z,86.70
2019-04-03T17:33:44.378Z,86.50
2019-04-03T17:35:10.062Z,85.60
2019-04-03T17:36:35.565Z,85.20
2019-04-03T17:38:01.453Z,85.80
2019-04-03T17:39:26.995Z,84.20
2019-04-03T17:40:52.462Z,84.90
2019-04-03T17:42:17.966Z,84.10
2019-04-03T17:43:43.825Z,84.70
2019-04-03T17:45:11.315Z,84.10
2019-04-03T17:46:39.799Z,83.60
2019-04-03T17:48:04.353Z,83.80
2019-04-03T17:49:29.774Z,84.10
2019-04-03T17:50:55.356Z,84.60
2019-04-03T17:52:20.963Z,84.70
2019-04-03T17:53:46.471Z,84.50
2019-04-03T17:55:12.292Z,83.90
2019-04-03T17:56:37.747Z,84.20
2019-04-03T17:58:03.338Z,83.70
2019-04-03T17:59:28.837Z,83.20
2019-04-03T18:00:54.358Z,83.50
2019-04-03T18:02:19.892Z,82.30
2019-04-03T18:03:45.395Z,82.30
2019-04-03T18:05:11.069Z,81.90
2019-04-03T18:06:36.900Z,81.20
2019-04-03T18:08:02.688Z,80.50
2019-04-03T18:09:28.489Z,80.00
2019-04-03T18:10:54.314Z,80.90
2019-04-03T18:12:21.834Z,81.60
2019-04-03T18:13:48.589Z,82.40
2019-04-03T18:15:14.585Z,83.00
2019-04-03T19:08:12.525Z,88.10
2019-04-03T19:09:29.034Z,88.60
2019-04-03T19:11:02.125Z,88.90
2019-04-03T19:12:21.748Z,88.80
2019-04-03T19:13:49.312Z,89.20
2019-04-03T19:15:14.649Z,89.50
2019-04-03T19:16:45.210Z,89.80
2019-04-03T19:18:19.033Z,90.10
2019-04-03T19:19:35.099Z,90.30
2019-04-03T19:21:00.729Z,90.40
2019-04-03T19:22:26.356Z,90.40
2019-04-03T19:23:53.707Z,90.40